Latest Weather Observations for Dum In Mirrie

IDD60801

Issued at 12:31 pm CST Sunday 28 December 2014 (issued every 30 minutes, with the page automatically refreshed every 10 minutes)

About weather observations | Map of weather stations | Latest weather observations for NT | Other Formats
Station Details ID: 014277 Name: DUM IN MIRRIE AIRSTRIP Lat: -12.63 Lon: 130.37 Height: 3.5 m
Data from the previous 72 hours. | See also: Recent months at Dum In Mirrie
Date/Time
CST
Temp
°C
App
Temp
°C
Dew
Point
Rel
Hum
%
Delta-T
°C
Wind Press
QNH
hPa
Press
MSL
hPa
Rain
since 9 am
mm
Dir
 
Spd
km/h
Gust
km/h
Spd
kts
Gust
kts
28/12:30pm 31.2 37.1 25.3 71 4.2 N 4 7 2 4 1006.4 1006.4 0.0
28/12:00pm 31.0 36.4 25.1 71 4.2 NE 6 9 3 5 1006.6 1006.6 0.0
28/11:30am 31.1 36.7 25.4 71 4.0 ENE 6 9 3 5 1006.9 1006.9 0.0
28/11:00am 31.0 36.4 25.1 71 4.2 NNE 6 9 3 5 1007.1 1007.1 0.0
28/10:30am 30.7 36.1 25.5 74 3.7 E 7 11 4 6 1007.5 1007.5 0.0
28/10:00am 30.4 36.4 26.1 78 3.1 ESE 6 9 3 5 1007.7 1007.7 0.0
28/09:30am 29.8 34.9 25.5 78 3.0 E 9 13 5 7 1007.8 1007.8 0.0
28/09:00am 29.6 35.0 25.4 78 3.0 E 7 11 4 6 1007.8 1007.8 0.2
28/08:30am 29.1 34.2 24.9 78 2.9 ESE 7 9 4 5 1007.9 1007.9 0.2
28/08:00am 28.5 34.4 25.3 83 2.3 ESE 4 7 2 4 1008.0 1008.0 0.2
28/07:30am 27.6 33.3 25.0 86 1.8 ESE 4 6 2 3 1007.8 1007.8 0.2
28/07:00am 27.1 32.6 24.7 87 1.7 SE 4 4 2 2 1007.5 1007.5 0.2
28/06:30am 27.1 32.6 24.7 87 1.7 SSE 4 6 2 3 1007.3 1007.3 0.2
28/06:00am 27.1 32.6 24.7 87 1.7 S 4 7 2 4 1006.7 1006.7 0.2
28/05:30am 27.1 32.7 24.9 88 1.5 S 4 9 2 5 1006.5 1006.5 0.2
28/05:00am 27.3 33.2 25.9 92 1.0 SSE 6 9 3 5 1006.4 1006.4 0.2
28/04:30am 27.4 33.7 26.0 92 1.0 ESE 4 6 2 3 1005.9 1005.9 0.2
28/04:00am 27.4 34.1 25.4 89 1.4 CALM 0 0 0 0 1006.0 1006.0 0.2
28/03:30am 27.8 34.5 25.4 87 1.7 CALM 0 2 0 1 1006.1 1006.1 0.2
28/03:00am 27.8 34.1 25.4 87 1.7 NNW 2 4 1 2 1005.9 1005.9 0.2
28/02:30am 27.6 34.8 26.2 92 1.0 CALM 0 0 0 0 1006.0 1006.0 0.2
28/02:00am 27.5 34.5 25.9 91 1.1 CALM 0 4 0 2 1006.0 1006.0 0.2
28/01:30am 27.7 35.0 26.3 92 1.0 CALM 0 0 0 0 1006.3 1006.3 0.2
28/01:00am 28.0 35.2 26.2 90 1.3 CALM 0 0 0 0 1006.7 1006.7 0.2
28/12:30am 27.9 34.7 25.5 87 1.7 CALM 0 0 0 0 1007.3 1007.3 0.2
28/12:00am 28.4 35.0 25.8 86 1.8 NNW 2 4 1 2 1007.4 1007.4 0.2
 
Date/Time
CST
Temp
°C
App
Temp
°C
Dew
Point
Rel
Hum
%
Delta-T
°C
Wind Press
QNH
hPa
Press
MSL
hPa
Rain
since 9 am
mm
Dir
 
Spd
km/h
Gust
km/h
Spd
kts
Gust
kts
27/11:30pm 28.3 34.2 25.3 84 2.1 NNW 4 6 2 3 1007.6 1007.6 0.2
27/11:00pm 28.7 34.2 24.7 79 2.8 NNW 4 4 2 2 1007.7 1007.7 0.2
27/10:30pm 29.2 34.1 24.3 75 3.4 WNW 6 9 3 5 1007.7 1007.7 0.2
27/10:00pm 29.1 33.8 24.0 74 3.5 W 6 11 3 6 1007.8 1007.8 0.2
27/09:30pm 29.2 34.1 24.7 77 3.1 WNW 7 11 4 6 1007.7 1007.7 0.2
27/09:00pm 29.0 34.5 24.6 77 3.1 W 4 6 2 3 1007.3 1007.3 0.2
27/08:30pm 29.2 35.4 25.2 79 2.8 N 2 6 1 3 1006.9 1006.9 0.2
27/08:00pm 29.1 35.1 24.9 78 2.9 NNW 2 6 1 3 1006.6 1006.6 0.2
27/07:30pm 29.1 35.2 25.1 79 2.8 NNW 2 4 1 2 1006.1 1006.1 0.2
27/07:00pm 29.7 35.2 24.6 74 3.6 NNW 4 7 2 4 1005.7 1005.7 0.2
27/06:30pm 30.1 35.5 25.2 75 3.5 NNW 6 9 3 5 1005.1 1005.1 0.2
27/06:00pm 30.4 35.6 24.8 72 3.9 NNW 6 11 3 6 1004.8 1004.8 0.2
27/05:30pm 30.7 35.9 24.8 71 4.2 NNW 6 9 3 5 1004.6 1004.6 0.2
27/05:00pm 31.1 36.0 24.7 68 4.5 NNW 7 11 4 6 1004.6 1004.6 0.2
27/04:30pm 31.8 36.9 25.6 69 4.4 NNW 9 13 5 7 1004.4 1004.4 0.2
27/04:00pm 31.7 37.0 25.8 71 4.2 NNW 9 15 5 8 1004.4 1004.4 0.2
27/03:30pm 32.1 37.4 25.2 67 4.9 NNW 7 11 4 6 1004.3 1004.3 0.2
27/03:00pm 31.8 36.6 24.4 65 5.2 NNW 7 13 4 7 1004.8 1004.8 0.2
27/02:30pm 31.6 36.2 24.2 65 5.2 NNW 7 11 4 6 1004.9 1004.9 0.2
27/02:00pm 31.7 36.8 24.6 66 5.0 NNW 6 9 3 5 1005.1 1005.1 0.2
27/01:30pm 31.2 36.4 24.8 69 4.5 WSW 6 7 3 4 1005.7 1005.7 0.2
27/01:00pm 31.3 36.8 24.7 68 4.6 SSE 4 9 2 5 1006.2 1006.2 0.2
27/12:30pm 31.3 37.3 24.9 69 4.5 ESE 2 7 1 4 1006.6 1006.6 0.2
27/12:00pm 30.0 35.5 25.3 76 3.3 E 6 9 3 5 1006.9 1006.9 0.2
27/11:30am 29.7 34.8 25.0 76 3.3 E 7 11 4 6 1007.2 1007.2 0.2
27/11:00am 29.4 34.8 25.2 78 3.0 ENE 6 9 3 5 1007.0 1007.0 0.2
27/10:30am 29.3 35.1 25.7 81 2.6 E 6 7 3 4 1007.2 1007.2 0.0
27/10:00am 28.6 35.3 26.0 86 1.8 E 2 4 1 2 1007.2 1007.2 0.0
27/09:30am 28.1 34.8 26.5 91 1.1 NE 4 6 2 3 1006.8 1006.8 0.0
27/09:00am 27.5 34.5 26.4 94 0.8 NNE 2 4 1 2 1006.7 1006.7 17.0
27/08:30am 27.1 33.8 26.0 94 0.8 ESE 2 6 1 3 1006.6 1006.6 17.0
27/08:00am 26.3 32.8 25.6 96 0.5 ESE 2 6 1 3 1006.2 1006.2 17.0
27/07:30am 25.1 30.1 23.9 93 0.8 SE 4 6 2 3 1006.0 1006.0 17.0
27/07:00am 25.2 28.7 23.6 91 1.1 NNW 11 19 6 10 1005.7 1005.7 11.0
27/06:30am 25.6 30.9 24.4 93 0.8 NNW 4 13 2 7 1005.1 1005.1 6.2
27/06:00am 26.3 32.6 25.3 94 0.7 NNW 2 6 1 3 1004.7 1004.7 4.2
27/05:30am 26.1 29.7 24.3 90 1.2 ESE 13 19 7 10 1004.1 1004.1 4.0
27/05:00am 26.1 30.8 24.3 90 1.2 E 7 13 4 7 1004.0 1004.0 4.0
27/04:30am 26.9 34.0 26.0 95 0.6 CALM 0 4 0 2 1003.8 1003.8 0.0
27/04:00am 26.5 33.1 25.3 93 0.8 CALM 0 0 0 0 1003.7 1003.7 0.0
27/03:30am 26.6 33.2 25.2 92 1.0 CALM 0 0 0 0 1003.6 1003.6 0.0
27/03:00am 26.8 33.4 25.2 91 1.1 CALM 0 0 0 0 1003.9 1003.9 0.0
27/02:30am 27.2 33.8 25.2 89 1.4 CALM 0 0 0 0 1004.0 1004.0 0.0
27/02:00am 27.7 34.5 25.5 88 1.5 CALM 0 0 0 0 1004.3 1004.3 0.0
27/01:30am 28.0 35.0 25.8 88 1.6 CALM 0 2 0 1 1004.7 1004.7 0.0
27/01:00am 28.6 35.1 25.6 84 2.1 WNW 2 6 1 3 1004.9 1004.9 0.0
27/12:30am 28.2 34.8 25.2 84 2.1 CALM 0 2 0 1 1005.4 1005.4 0.0
27/12:00am 28.5 34.5 24.9 81 2.5 NW 2 4 1 2 1005.7 1005.7 0.0
 
Date/Time
CST
Temp
°C
App
Temp
°C
Dew
Point
Rel
Hum
%
Delta-T
°C
Wind Press
QNH
hPa
Press
MSL
hPa
Rain
since 9 am
mm
Dir
 
Spd
km/h
Gust
km/h
Spd
kts
Gust
kts
26/11:30pm 27.9 34.7 25.5 87 1.7 CALM 0 4 0 2 1005.9 1005.9 0.0
26/11:00pm 28.0 34.3 25.4 86 1.8 NNW 2 4 1 2 1005.9 1005.9 0.0
26/10:30pm 28.4 35.0 25.2 83 2.3 CALM 0 4 0 2 1005.9 1005.9 0.0
26/10:00pm 28.6 34.4 24.6 79 2.8 NNW 2 4 1 2 1005.7 1005.7 0.0
26/09:30pm 29.6 35.0 24.5 74 3.6 WNW 4 7 2 4 1005.5 1005.5 0.0
26/09:00pm 29.8 34.6 24.2 72 3.9 W 6 7 3 4 1005.4 1005.4 0.0
26/08:30pm 29.8 35.1 24.4 73 3.8 W 4 7 2 4 1004.9 1004.9 0.0
26/08:00pm 29.9 34.8 24.3 72 3.9 WNW 6 11 3 6 1004.5 1004.5 0.0
26/07:30pm 29.9 34.7 24.1 71 4.0 WNW 6 9 3 5 1004.1 1004.1 0.0
26/07:00pm 30.3 34.7 23.5 67 4.7 WNW 6 9 3 5 1003.9 1003.9 0.0
26/06:30pm 31.6 36.3 24.0 64 5.3 W 6 9 3 5 1003.7 1003.7 0.0
26/06:00pm 31.6 36.1 24.0 64 5.3 WSW 7 13 4 7 1003.4 1003.4 0.0
26/05:30pm 31.7 36.4 24.3 65 5.2 W 7 15 4 8 1003.2 1003.2 0.0
26/05:00pm 31.9 36.5 24.7 65 5.1 W 9 15 5 8 1002.9 1002.9 0.0
26/04:30pm 31.6 36.2 24.7 67 4.9 WNW 9 15 5 8 1002.9 1002.9 0.0
26/04:00pm 32.0 36.5 24.6 65 5.2 W 9 15 5 8 1003.2 1003.2 0.0
26/03:30pm 31.6 35.9 24.2 65 5.2 W 9 15 5 8 1003.5 1003.5 0.0
26/03:00pm 31.3 35.8 23.9 64 5.2 W 7 13 4 7 1003.8 1003.8 0.0
26/02:30pm 30.8 35.2 23.5 65 5.1 WNW 6 11 3 6 1004.3 1004.3 0.0
26/02:00pm 30.7 35.0 23.6 66 4.9 WNW 7 13 4 7 1004.7 1004.7 0.0
26/01:30pm 30.9 35.5 23.8 66 4.9 W 6 9 3 5 1004.8 1004.8 0.0
26/01:00pm 30.5 35.2 23.9 68 4.6 W 6 9 3 5 1005.1 1005.1 0.0
26/12:30pm 30.2 35.1 24.4 71 4.1 WSW 6 9 3 5 1005.4 1005.4 0.0
26/12:00pm 30.0 35.2 25.1 75 3.5 SW 7 15 4 8 1005.4 1005.4 0.0
26/11:30am 29.8 35.0 25.1 76 3.3 SW 7 13 4 7 1005.6 1005.6 0.0
26/11:00am 29.7 34.0 24.3 73 3.8 SW 9 15 5 8 1005.8 1005.8 0.0
26/10:30am 29.6 34.6 24.5 74 3.6 S 6 7 3 4 1006.1 1006.1 0.0
26/10:00am 28.9 34.7 24.5 77 3.1 SSE 2 6 1 3 1006.2 1006.2 0.0
26/09:30am 28.1 34.0 24.7 82 2.4 SSE 2 9 1 5 1006.3 1006.3 0.0
26/09:00am 27.4 32.1 24.3 83 2.2 SSE 7 11 4 6 1006.5 1006.5 1.8
26/08:30am 27.5 31.3 24.7 85 2.0 SSW 13 22 7 12 1006.8 1006.8 1.8
26/08:00am 28.6 32.0 25.2 82 2.4 SSW 17 26 9 14 1006.6 1006.6 1.6
26/07:30am 28.7 33.5 25.1 81 2.5 WNW 9 20 5 11 1006.0 1006.0 1.6
26/07:00am 27.8 31.3 22.1 71 3.8 NNW 7 30 4 16 1005.5 1005.5 0.0
26/06:30am 28.7 33.8 24.9 80 2.7 SW 7 19 4 10 1004.9 1004.9 0.0
26/06:00am 29.7 34.8 24.6 74 3.6 NW 6 11 3 6 1004.5 1004.5 0.0
26/05:30am 29.5 34.3 24.4 74 3.6 NW 7 13 4 7 1004.2 1004.2 0.0
26/05:00am 29.7 34.3 24.1 72 3.9 NW 7 13 4 7 1004.0 1004.0 0.0
26/04:30am 29.9 34.1 24.1 71 4.0 WNW 9 15 5 8 1004.1 1004.1 0.0
26/04:00am 29.9 34.6 24.3 72 3.9 WNW 7 17 4 9 1004.1 1004.1 0.0
26/03:30am 29.8 33.9 24.0 71 4.0 WNW 9 17 5 9 1004.1 1004.1 0.0
26/03:00am 29.7 34.4 24.3 73 3.8 WNW 7 15 4 8 1003.8 1003.8 0.0
26/02:30am 29.6 34.4 24.2 73 3.8 NW 6 11 3 6 1004.0 1004.0 0.0
26/02:00am 29.6 34.1 24.0 72 3.9 NW 7 9 4 5 1003.9 1003.9 0.0
26/01:30am 29.7 34.6 24.6 74 3.6 NW 7 11 4 6 1003.9 1003.9 0.0
26/01:00am 29.9 34.9 24.8 74 3.6 NW 7 13 4 7 1004.5 1004.5 0.0
26/12:30am 30.1 34.4 24.3 71 4.0 NW 9 15 5 8 1004.9 1004.9 0.0
26/12:00am 30.2 35.2 24.8 73 3.8 NW 7 15 4 8 1005.3 1005.3 0.0
 
Date/Time
CST
Temp
°C
App
Temp
°C
Dew
Point
Rel
Hum
%
Delta-T
°C
Wind Press
QNH
hPa
Press
MSL
hPa
Rain
since 9 am
mm
Dir
 
Spd
km/h
Gust
km/h
Spd
kts
Gust
kts
25/11:30pm 30.3 35.0 24.9 73 3.8 NW 9 15 5 8 1005.7 1005.7 0.0
25/11:00pm 30.3 34.9 24.2 70 4.2 NW 7 13 4 7 1005.9 1005.9 0.0
25/10:30pm 30.4 35.0 24.8 72 3.9 NW 9 17 5 9 1005.7 1005.7 0.0
25/10:00pm 30.3 35.2 24.7 72 3.9 NW 7 13 4 7 1005.5 1005.5 0.0
25/09:30pm 30.1 35.1 24.5 72 3.9 WNW 6 9 3 5 1005.3 1005.3 0.0
25/09:00pm 30.2 35.5 24.4 71 4.1 NW 4 7 2 4 1005.2 1005.2 0.0
25/08:30pm 30.2 35.1 24.4 71 4.1 WNW 6 9 3 5 1005.3 1005.3 0.0
25/08:00pm 30.4 35.2 24.1 69 4.4 WNW 6 13 3 7 1005.0 1005.0 0.0
25/07:30pm 30.6 35.5 24.7 71 4.1 W 7 17 4 9 1004.6 1004.6 0.0
25/07:00pm 30.8 35.6 24.4 68 4.5 W 7 13 4 7 1004.3 1004.3 0.0
25/06:30pm 31.1 35.6 24.0 66 5.0 W 7 13 4 7 1004.0 1004.0 0.0
25/06:00pm 31.6 36.2 24.7 67 4.9 W 9 19 5 10 1003.7 1003.7 0.0
25/05:30pm 32.2 37.8 25.8 69 4.6 WSW 7 13 4 7 1003.6 1003.6 0.0
25/05:00pm 32.3 37.8 25.6 67 4.8 WSW 7 13 4 7 1003.8 1003.8 0.0
25/04:30pm 32.9 38.8 26.2 68 4.8 WSW 7 17 4 9 1003.8 1003.8 0.0
25/04:00pm 32.4 37.3 25.2 66 5.1 WSW 9 15 5 8 1004.0 1004.0 0.0
25/03:30pm 32.0 36.9 25.3 67 4.8 SW 9 15 5 8 1004.0 1004.0 0.0
25/03:00pm 33.0 37.7 25.0 63 5.7 W 9 15 5 8 1004.0 1004.0 0.0
25/02:30pm 32.8 36.8 25.1 64 5.5 SW 13 22 7 12 1004.8 1004.8 0.0
25/02:00pm 33.0 37.6 24.7 61 5.8 W 9 17 5 9 1005.2 1005.2 0.0
25/01:30pm 33.5 38.4 25.2 62 5.9 W 9 17 5 9 1005.7 1005.7 0.0
25/01:00pm 33.0 37.2 24.7 61 5.8 W 11 15 6 8 1006.1 1006.1 0.0

Other Formats:

Comma delimited format used in spreadsheet applications
http://www.bom.gov.au/fwo/IDD60801/IDD60801.94116.axf

JavaScript Object Notation format (JSON) in row-major order
http://www.bom.gov.au/fwo/IDD60801/IDD60801.94116.json